createdAt,value
2023-04-04T00:00:09.762Z,2.27
2023-04-04T00:02:36.083Z,2.37
2023-04-04T00:05:02.906Z,2.70
2023-04-04T00:07:29.129Z,2.87
2023-04-04T00:09:55.847Z,2.57
2023-04-04T00:12:24.795Z,2.57
2023-04-04T00:14:53.054Z,2.70
2023-04-04T00:17:19.457Z,2.57
2023-04-04T00:19:46.491Z,2.20
2023-04-04T00:22:15.987Z,2.10
2023-04-04T00:24:42.591Z,2.50
2023-04-04T00:27:08.828Z,2.20
2023-04-04T00:29:35.092Z,2.37
2023-04-04T00:32:01.429Z,2.50
2023-04-04T00:34:27.774Z,2.20
2023-04-04T00:36:54.334Z,2.43
2023-04-04T00:39:20.594Z,2.53
2023-04-04T00:41:48.595Z,2.30
2023-04-04T00:44:15.033Z,2.43
2023-04-04T00:46:41.336Z,2.47
2023-04-04T00:49:07.876Z,2.20
2023-04-04T00:51:34.141Z,2.30
2023-04-04T00:54:00.624Z,2.27
2023-04-04T00:56:27.026Z,2.53
2023-04-04T00:58:54.676Z,2.00
2023-04-04T01:01:21.020Z,2.40
2023-04-04T01:03:47.330Z,2.50
2023-04-04T01:06:14.073Z,2.40
2023-04-04T01:08:40.428Z,2.30
2023-04-04T01:11:07.078Z,2.10
2023-04-04T01:13:33.841Z,2.20
2023-04-04T01:16:00.726Z,2.10
2023-04-04T01:18:27.592Z,2.30
2023-04-04T01:26:21.241Z,2.07
2023-04-04T01:28:47.572Z,2.37
2023-04-04T01:31:14.397Z,2.57
2023-04-04T01:33:43.341Z,2.70
2023-04-04T01:36:22.813Z,2.60
2023-04-04T01:38:53.997Z,2.40
2023-04-04T01:41:20.677Z,2.20
2023-04-04T01:43:47.336Z,2.60
2023-04-04T01:46:13.783Z,2.10
2023-04-04T01:48:40.048Z,2.40
2023-04-04T01:51:06.419Z,2.50
2023-04-04T01:53:32.656Z,2.40
2023-04-04T01:55:58.887Z,2.20
2023-04-04T01:58:25.968Z,2.17
2023-04-04T02:00:52.276Z,2.33
2023-04-04T02:03:18.545Z,2.53
2023-04-04T02:05:44.806Z,2.43
2023-04-04T02:08:12.224Z,2.20
2023-04-04T02:10:38.719Z,2.40
2023-04-04T02:13:06.651Z,2.80
2023-04-04T02:15:35.456Z,2.43
2023-04-04T02:18:02.268Z,2.07
2023-04-04T02:20:28.825Z,2.97
2023-04-04T02:22:55.649Z,2.57
2023-04-04T02:25:22.701Z,2.40
2023-04-04T02:27:48.982Z,2.53
2023-04-04T02:30:15.466Z,2.87
2023-04-04T02:32:42.564Z,2.93
2023-04-04T02:35:09.188Z,2.50
2023-04-04T02:37:35.444Z,2.77
2023-04-04T02:40:01.689Z,2.50
2023-04-04T02:42:27.949Z,2.07
2023-04-04T02:44:54.242Z,2.63
2023-04-04T02:47:20.507Z,2.30
2023-04-04T02:49:47.159Z,2.50
2023-04-04T02:52:13.484Z,2.67
2023-04-04T02:54:39.773Z,2.60
2023-04-04T02:57:06.043Z,2.63
2023-04-04T02:59:32.438Z,2.50
2023-04-04T03:01:58.802Z,2.60
2023-04-04T03:04:25.126Z,2.90
2023-04-04T03:06:52.215Z,2.23
2023-04-04T03:09:18.697Z,2.90
2023-04-04T03:11:45.303Z,2.83
2023-04-04T03:14:12.098Z,2.67
2023-04-04T03:16:38.868Z,2.30
2023-04-04T03:19:05.262Z,2.63
2023-04-04T03:21:31.568Z,2.40
2023-04-04T03:23:57.938Z,2.57
2023-04-04T03:26:24.584Z,3.00
2023-04-04T03:28:50.904Z,2.43
2023-04-04T03:31:17.418Z,3.03
2023-04-04T03:33:43.855Z,2.80
2023-04-04T03:36:11.988Z,2.87
2023-04-04T03:38:38.625Z,2.50
2023-04-04T03:41:05.560Z,2.80
2023-04-04T03:43:32.581Z,3.00
2023-04-04T03:46:02.752Z,2.93
2023-04-04T03:48:29.327Z,2.70
2023-04-04T03:50:58.679Z,2.97
2023-04-04T03:53:25.605Z,2.40
2023-04-04T03:55:52.794Z,2.70
2023-04-04T03:58:19.267Z,3.20
2023-04-04T04:00:45.538Z,3.00
2023-04-04T04:03:12.712Z,2.83
2023-04-04T04:05:40.402Z,2.60
2023-04-04T04:08:06.666Z,2.90
2023-04-04T04:10:33.618Z,2.87
2023-04-04T04:12:59.909Z,2.93
2023-04-04T04:15:26.213Z,2.97
2023-04-04T04:17:52.506Z,3.47
2023-04-04T04:20:18.848Z,3.10
2023-04-04T04:22:45.764Z,3.03
2023-04-04T04:25:12.031Z,2.73
2023-04-04T04:27:38.268Z,2.80
2023-04-04T04:30:05.068Z,2.77
2023-04-04T04:32:31.347Z,2.53
2023-04-04T04:34:57.786Z,2.37
2023-04-04T04:37:26.079Z,3.30
2023-04-04T04:39:52.927Z,2.60
2023-04-04T04:42:19.639Z,2.63
2023-04-04T04:44:45.975Z,3.10
2023-04-04T04:47:12.241Z,3.17
2023-04-04T04:49:38.498Z,2.60
2023-04-04T04:52:05.030Z,3.13
2023-04-04T04:54:31.288Z,2.80
2023-04-04T04:56:57.644Z,3.00
2023-04-04T04:59:24.029Z,2.80
2023-04-04T05:01:50.537Z,3.07
2023-04-04T05:04:17.617Z,3.03
2023-04-04T05:06:43.892Z,2.93
2023-04-04T05:09:10.144Z,2.73
2023-04-04T05:11:36.548Z,3.10
2023-04-04T05:14:02.799Z,2.70
2023-04-04T05:16:29.149Z,2.90
2023-04-04T05:18:55.463Z,3.07
2023-04-04T05:21:21.763Z,2.80
2023-04-04T05:23:48.648Z,2.90
2023-04-04T05:26:14.915Z,3.27
2023-04-04T05:28:41.245Z,3.37
2023-04-04T05:31:07.643Z,3.63
2023-04-04T05:33:33.871Z,3.57
2023-04-04T05:36:00.760Z,3.60
2023-04-04T05:38:27.199Z,3.10
2023-04-04T05:40:54.416Z,3.60
2023-04-04T05:43:20.691Z,3.70
2023-04-04T05:45:47.544Z,3.60
2023-04-04T05:48:13.804Z,3.87
2023-04-04T05:50:40.434Z,3.70
2023-04-04T05:53:06.920Z,3.47
2023-04-04T05:55:33.194Z,3.63
2023-04-04T05:57:59.529Z,4.17
2023-04-04T06:00:25.875Z,3.90
2023-04-04T06:02:53.450Z,3.80
2023-04-04T06:05:19.817Z,3.73
2023-04-04T06:07:46.111Z,3.70
2023-04-04T06:10:12.438Z,3.40
2023-04-04T06:12:38.673Z,3.77
2023-04-04T06:15:05.481Z,3.53
2023-04-04T06:17:31.771Z,3.77
2023-04-04T06:19:58.050Z,3.63
2023-04-04T06:22:24.393Z,4.23
2023-04-04T06:24:50.652Z,3.20
2023-04-04T06:27:17.060Z,3.00
2023-04-04T06:29:43.876Z,3.80
2023-04-04T06:32:10.137Z,3.30
2023-04-04T06:34:36.373Z,3.60
2023-04-04T06:37:03.507Z,3.50
2023-04-04T06:39:31.474Z,4.07
2023-04-04T06:41:57.809Z,3.00
2023-04-04T06:44:24.135Z,3.40
2023-04-04T06:46:51.193Z,3.33
2023-04-04T06:49:17.680Z,2.67
2023-04-04T06:51:44.537Z,2.13
2023-04-04T06:54:10.844Z,2.90
2023-04-04T06:56:37.360Z,3.20
2023-04-04T06:59:03.687Z,3.60
2023-04-04T07:01:33.080Z,2.63
2023-04-04T07:03:59.482Z,2.30
2023-04-04T07:06:26.735Z,2.50
2023-04-04T07:08:53.365Z,2.10
2023-04-04T07:11:19.669Z,2.47
2023-04-04T07:13:45.954Z,2.17
2023-04-04T07:16:12.233Z,2.83
2023-04-04T07:18:38.529Z,2.57
2023-04-04T07:21:04.936Z,2.67
2023-04-04T07:23:31.247Z,2.03
2023-04-04T07:25:57.880Z,2.40
2023-04-04T07:28:24.128Z,2.67
2023-04-04T07:30:50.503Z,2.27
2023-04-04T07:33:16.762Z,2.00
2023-04-04T07:35:43.316Z,2.23
2023-04-04T07:38:10.203Z,2.40
2023-04-04T07:40:36.697Z,2.20
2023-04-04T07:43:03.056Z,2.17
2023-04-04T07:45:29.316Z,2.00
2023-04-04T07:47:55.939Z,2.00
2023-04-04T07:50:23.252Z,1.80
2023-04-04T07:52:55.734Z,1.60
2023-04-04T07:55:25.050Z,1.50
2023-04-04T07:57:52.371Z,2.20
2023-04-04T08:00:21.896Z,1.70
2023-04-04T08:02:52.863Z,2.10
2023-04-04T08:05:19.247Z,1.90
2023-04-04T08:07:45.572Z,1.90
2023-04-04T08:10:12.111Z,1.80
2023-04-04T08:12:38.608Z,2.07
2023-04-04T08:15:05.128Z,1.70
2023-04-04T08:17:31.498Z,2.10
2023-04-04T08:19:57.768Z,1.97
2023-04-04T08:22:24.086Z,1.57
2023-04-04T08:24:50.795Z,1.50
2023-04-04T08:27:17.085Z,1.70
2023-04-04T08:29:45.435Z,1.73
2023-04-04T08:32:11.686Z,1.53
2023-04-04T08:34:38.387Z,1.67
2023-04-04T08:37:04.705Z,1.57
2023-04-04T08:39:31.530Z,1.93
2023-04-04T08:42:02.190Z,1.53
2023-04-04T08:44:29.550Z,1.57
2023-04-04T08:46:56.463Z,1.87
2023-04-04T08:49:24.232Z,1.90
2023-04-04T08:51:52.325Z,1.80
2023-04-04T08:54:19.388Z,1.77
2023-04-04T08:56:45.806Z,1.80
2023-04-04T08:59:15.482Z,1.73
2023-04-04T09:01:42.245Z,1.70
2023-04-04T09:04:09.054Z,1.60
2023-04-04T09:06:35.774Z,1.40
2023-04-04T09:09:02.657Z,1.60
2023-04-04T09:11:31.495Z,1.50
2023-04-04T09:13:58.244Z,1.67
2023-04-04T09:16:24.751Z,1.70
2023-04-04T09:18:52.852Z,1.60
2023-04-04T09:21:19.281Z,1.63
2023-04-04T09:23:45.693Z,1.50
2023-04-04T09:26:13.267Z,1.50
2023-04-04T09:28:39.600Z,1.60
2023-04-04T09:31:07.558Z,1.50
2023-04-04T09:33:34.453Z,1.40
2023-04-04T09:36:10.084Z,1.20
2023-04-04T09:38:37.127Z,1.60
2023-04-04T09:41:06.181Z,1.57
2023-04-04T09:43:33.778Z,1.53
2023-04-04T09:46:01.824Z,1.70
2023-04-04T09:48:30.579Z,1.30
2023-04-04T09:50:58.722Z,1.30
2023-04-04T09:53:25.068Z,1.63
2023-04-04T09:55:52.219Z,1.60
2023-04-04T09:58:22.082Z,1.33
2023-04-04T10:00:48.545Z,1.83
2023-04-04T10:03:15.934Z,1.60
2023-04-04T10:05:42.390Z,1.80
2023-04-04T10:08:16.052Z,1.60
2023-04-04T10:10:55.727Z,1.60
2023-04-04T10:13:32.505Z,1.37
2023-04-04T10:15:59.849Z,1.40
2023-04-04T10:18:27.514Z,1.80
2023-04-04T10:20:57.026Z,1.60
2023-04-04T10:23:31.045Z,1.47
2023-04-04T10:25:58.595Z,1.40
2023-04-04T10:28:26.559Z,1.33
2023-04-04T10:31:05.875Z,1.50
2023-04-04T10:33:33.121Z,1.30
2023-04-04T10:36:03.630Z,1.40
2023-04-04T10:38:32.467Z,1.30
2023-04-04T10:41:00.202Z,1.23
2023-04-04T10:43:30.135Z,1.60
2023-04-04T10:45:59.255Z,1.70
2023-04-04T10:48:26.241Z,1.20
2023-04-04T10:50:53.264Z,1.50
2023-04-04T10:53:19.904Z,1.50
2023-04-04T10:55:46.650Z,1.67
2023-04-04T10:58:13.409Z,1.40
2023-04-04T11:00:49.284Z,1.40
2023-04-04T11:03:15.630Z,1.30
2023-04-04T11:05:47.227Z,1.23
2023-04-04T11:08:22.062Z,1.23
2023-04-04T11:10:49.031Z,1.20
2023-04-04T11:13:16.280Z,1.20
2023-04-04T11:15:55.804Z,1.60
2023-04-04T11:18:33.374Z,1.53
2023-04-04T11:21:03.387Z,1.30
2023-04-04T11:23:39.313Z,1.37
2023-04-04T11:26:07.286Z,1.50
2023-04-04T11:28:33.905Z,1.40
2023-04-04T11:31:18.705Z,1.27
2023-04-04T11:33:55.496Z,1.10
2023-04-04T11:36:37.215Z,1.10
2023-04-04T11:39:05.421Z,1.50
2023-04-04T11:41:51.242Z,1.23
2023-04-04T11:44:17.951Z,1.20
2023-04-04T11:46:44.749Z,1.40
2023-04-04T11:49:11.568Z,1.57
2023-04-04T11:51:41.309Z,1.40
2023-04-04T11:54:15.416Z,1.00
2023-04-04T11:56:42.119Z,1.50
2023-04-04T11:59:11.854Z,1.23
2023-04-04T12:01:41.132Z,1.40
2023-04-04T12:04:07.957Z,1.07
2023-04-04T12:06:35.544Z,1.40
2023-04-04T12:09:03.642Z,1.30
2023-04-04T12:11:30.938Z,1.23
2023-04-04T12:13:57.628Z,1.30
2023-04-04T12:16:24.146Z,1.20
2023-04-04T12:18:50.753Z,1.27
2023-04-04T12:21:17.683Z,1.77
2023-04-04T12:23:43.942Z,1.10
2023-04-04T12:26:11.364Z,1.47
2023-04-04T12:28:39.450Z,1.50
2023-04-04T12:31:06.802Z,1.20
2023-04-04T12:33:36.529Z,1.03
2023-04-04T12:36:03.838Z,1.93
2023-04-04T12:38:31.588Z,1.30
2023-04-04T12:40:58.342Z,1.30
2023-04-04T12:43:27.855Z,1.10
2023-04-04T12:45:54.651Z,1.40
2023-04-04T12:48:26.045Z,1.50
2023-04-04T12:50:56.808Z,1.07
2023-04-04T12:55:53.744Z,1.13
2023-04-04T12:58:21.299Z,1.50
2023-04-04T13:00:48.470Z,1.60
2023-04-04T13:03:15.699Z,1.03
2023-04-04T13:05:46.323Z,1.47
2023-04-04T13:08:13.129Z,1.30
2023-04-04T13:10:56.605Z,1.13
2023-04-04T13:13:32.834Z,1.10
2023-04-04T13:15:59.270Z,0.90
2023-04-04T13:18:26.633Z,1.20
2023-04-04T13:20:53.981Z,1.47
2023-04-04T13:23:20.780Z,1.40
2023-04-04T13:25:47.842Z,1.30
2023-04-04T13:28:14.462Z,1.10
2023-04-04T13:30:46.430Z,1.00
2023-04-04T13:33:12.818Z,1.50
2023-04-04T13:35:39.326Z,1.40
2023-04-04T13:38:05.785Z,1.40
2023-04-04T13:40:32.077Z,1.23
2023-04-04T13:42:58.390Z,1.00
2023-04-04T13:45:24.738Z,1.13
2023-04-04T13:47:50.991Z,1.30
2023-04-04T13:50:18.197Z,1.30
2023-04-04T13:52:44.436Z,1.10
2023-04-04T13:55:10.751Z,1.20
2023-04-04T13:57:37.052Z,1.13
2023-04-04T14:00:05.358Z,1.53
2023-04-04T14:02:31.707Z,1.90
2023-04-04T14:04:57.991Z,1.30
2023-04-04T14:07:24.249Z,1.43
2023-04-04T14:09:50.510Z,1.27
2023-04-04T14:12:16.770Z,1.30
2023-04-04T14:14:43.014Z,1.27
2023-04-04T14:17:09.347Z,1.07
2023-04-04T14:19:38.360Z,1.10
2023-04-04T14:22:05.245Z,1.50
2023-04-04T14:24:31.570Z,1.27
2023-04-04T14:26:57.844Z,1.23
2023-04-04T14:29:24.155Z,1.37
2023-04-04T14:31:50.599Z,1.10
2023-04-04T14:34:16.909Z,1.20
2023-04-04T14:36:43.196Z,1.33
2023-04-04T14:39:09.434Z,1.50
2023-04-04T14:41:36.449Z,1.20
2023-04-04T14:44:02.712Z,1.27
2023-04-04T14:46:29.003Z,1.40
2023-04-04T14:48:55.406Z,1.10
2023-04-04T14:51:21.837Z,1.37
2023-04-04T14:53:48.853Z,1.03
2023-04-04T14:56:15.125Z,1.10
2023-04-04T14:58:41.652Z,1.20
2023-04-04T15:01:08.485Z,1.13
2023-04-04T15:03:35.018Z,1.33
2023-04-04T15:06:01.984Z,1.20
2023-04-04T15:08:28.308Z,1.23
2023-04-04T15:10:54.607Z,1.63
2023-04-04T15:13:20.957Z,1.00
2023-04-04T15:15:47.221Z,1.30
2023-04-04T15:18:13.466Z,1.20
2023-04-04T15:20:40.320Z,1.60
2023-04-04T15:23:07.051Z,1.13
2023-04-04T15:25:33.595Z,1.20
2023-04-04T15:28:02.928Z,1.20
2023-04-04T15:30:29.457Z,1.00
2023-04-04T15:32:56.540Z,1.10
2023-04-04T15:35:23.016Z,1.30
2023-04-04T15:37:49.453Z,1.30
2023-04-04T15:40:16.388Z,1.20
2023-04-04T15:42:42.624Z,1.30
2023-04-04T15:45:09.363Z,1.13
2023-04-04T15:47:35.965Z,1.70
2023-04-04T15:50:02.233Z,1.27
2023-04-04T15:52:28.702Z,1.50
2023-04-04T15:54:55.723Z,1.57
2023-04-04T15:57:22.048Z,1.20
2023-04-04T15:59:48.729Z,1.60
2023-04-04T16:02:15.247Z,1.37
2023-04-04T16:04:41.741Z,1.47
2023-04-04T16:07:08.224Z,1.20
2023-04-04T16:09:34.452Z,1.53
2023-04-04T16:12:02.185Z,1.53
2023-04-04T16:14:28.591Z,1.50
2023-04-04T16:16:54.837Z,1.40
2023-04-04T16:19:21.168Z,1.40
2023-04-04T16:21:49.237Z,1.60
2023-04-04T16:24:15.712Z,1.80
2023-04-04T16:26:47.153Z,1.30
2023-04-04T16:29:16.581Z,1.93
2023-04-04T16:31:43.006Z,1.60
2023-04-04T16:34:09.353Z,1.63
2023-04-04T16:36:35.819Z,1.60
2023-04-04T16:39:02.183Z,1.60
2023-04-04T16:41:28.847Z,1.50
2023-04-04T16:43:55.474Z,1.20
2023-04-04T16:46:21.832Z,1.57
2023-04-04T16:48:48.114Z,1.90
2023-04-04T16:51:14.419Z,1.43
2023-04-04T16:53:40.860Z,1.70
2023-04-04T16:56:07.120Z,1.47
2023-04-04T16:58:33.436Z,1.47
2023-04-04T17:00:59.777Z,1.97
2023-04-04T17:03:26.059Z,1.80
2023-04-04T17:05:56.181Z,1.50
2023-04-04T17:08:22.738Z,2.20
2023-04-04T17:10:48.982Z,1.97
2023-04-04T17:13:16.008Z,2.20
2023-04-04T17:15:42.262Z,1.90
2023-04-04T17:18:08.935Z,2.00
2023-04-04T17:20:35.336Z,1.90
2023-04-04T17:23:01.573Z,1.80
2023-04-04T17:25:29.212Z,1.60
2023-04-04T17:27:55.902Z,1.90
2023-04-04T17:30:22.367Z,1.40
2023-04-04T17:32:48.958Z,1.90
2023-04-04T17:35:15.676Z,2.40
2023-04-04T17:37:42.099Z,1.97
2023-04-04T17:40:08.986Z,2.13
2023-04-04T17:42:35.374Z,1.83
2023-04-04T17:45:01.666Z,1.70
2023-04-04T17:47:27.931Z,1.80
2023-04-04T17:49:54.360Z,1.87
2023-04-04T17:52:20.627Z,1.97
2023-04-04T17:54:52.272Z,1.70
2023-04-04T17:57:18.869Z,1.70
2023-04-04T17:59:45.224Z,1.70
2023-04-04T18:02:11.787Z,1.90
2023-04-04T18:04:38.365Z,1.80
2023-04-04T18:07:06.674Z,2.10
2023-04-04T18:09:32.949Z,2.30
2023-04-04T18:11:59.623Z,2.37
2023-04-04T18:14:26.201Z,2.17
2023-04-04T18:16:52.532Z,2.40
2023-04-04T18:19:18.811Z,2.47
2023-04-04T18:21:48.802Z,2.70
2023-04-04T18:24:15.108Z,2.10
2023-04-04T18:26:41.470Z,2.23
2023-04-04T18:29:08.291Z,2.37
2023-04-04T18:31:34.654Z,2.20
2023-04-04T18:34:01.168Z,1.90
2023-04-04T18:36:27.883Z,2.17
2023-04-04T18:38:54.134Z,2.30
2023-04-04T18:41:20.480Z,2.40
2023-04-04T18:43:46.759Z,2.43
2023-04-04T18:46:13.015Z,2.50
2023-04-04T18:48:39.334Z,2.50
2023-04-04T18:51:06.553Z,2.50
2023-04-04T18:53:32.813Z,2.43
2023-04-04T18:55:59.202Z,2.13
2023-04-04T18:58:26.084Z,2.30
2023-04-04T19:00:54.234Z,2.40
2023-04-04T19:03:21.439Z,2.47
2023-04-04T19:05:49.026Z,2.57
2023-04-04T19:08:16.257Z,2.40
2023-04-04T19:10:47.356Z,3.40
2023-04-04T19:13:15.200Z,3.20
2023-04-04T19:15:42.697Z,2.80
2023-04-04T19:18:09.388Z,3.03
2023-04-04T19:20:36.089Z,3.17
2023-04-04T19:23:02.412Z,2.60
2023-04-04T19:25:28.921Z,2.43
2023-04-04T19:27:55.444Z,2.47
2023-04-04T19:30:31.897Z,2.40
2023-04-04T19:32:58.305Z,2.23
2023-04-04T19:35:44.706Z,2.87
2023-04-04T19:38:12.686Z,2.67
2023-04-04T19:40:48.944Z,3.13
2023-04-04T19:43:21.797Z,3.17
2023-04-04T19:45:48.074Z,3.00
2023-04-04T19:48:33.047Z,3.17
2023-04-04T19:51:06.480Z,3.30
2023-04-04T19:53:32.746Z,3.10
2023-04-04T19:55:59.123Z,3.37
2023-04-04T19:58:25.527Z,3.30
2023-04-04T20:00:51.832Z,3.70
2023-04-04T20:03:33.608Z,3.83
2023-04-04T20:06:04.857Z,4.53
2023-04-04T20:08:35.586Z,3.97
2023-04-04T20:11:02.073Z,3.73
2023-04-04T20:13:28.434Z,3.60
2023-04-04T20:15:56.195Z,3.67
2023-04-04T20:18:23.370Z,3.43
2023-04-04T20:20:52.801Z,3.77
2023-04-04T20:23:19.311Z,3.20
2023-04-04T20:25:47.014Z,3.30
2023-04-04T20:28:24.637Z,3.60
2023-04-04T20:30:51.114Z,3.33
2023-04-04T20:33:29.716Z,3.03
2023-04-04T20:35:56.311Z,3.43
2023-04-04T20:38:22.540Z,3.63
2023-04-04T20:40:48.825Z,3.80
2023-04-04T20:43:15.179Z,4.00
2023-04-04T20:45:46.754Z,3.97
2023-04-04T20:48:32.116Z,3.97
2023-04-04T20:50:58.541Z,3.70
2023-04-04T20:53:27.451Z,3.73
2023-04-04T20:55:54.064Z,3.13
2023-04-04T20:58:28.055Z,3.73
2023-04-04T21:00:55.421Z,3.40
2023-04-04T21:03:29.857Z,3.30
2023-04-04T21:06:02.113Z,3.27
2023-04-04T21:08:38.720Z,3.10
2023-04-04T21:11:06.751Z,3.30
2023-04-04T21:13:34.122Z,3.27
2023-04-04T21:16:03.113Z,2.63
2023-04-04T21:18:30.279Z,2.83
2023-04-04T21:20:57.045Z,3.23
2023-04-04T21:23:26.193Z,3.37
2023-04-04T21:26:08.346Z,3.30
2023-04-04T21:28:38.947Z,3.30
2023-04-04T21:31:18.081Z,2.87
2023-04-04T21:33:45.366Z,3.30
2023-04-04T21:36:18.516Z,3.20
2023-04-04T21:38:44.763Z,3.50
2023-04-04T21:41:22.777Z,3.17
2023-04-04T21:43:49.005Z,3.00
2023-04-04T21:46:15.352Z,3.43
2023-04-04T21:48:41.709Z,3.20
2023-04-04T21:51:07.995Z,3.13
2023-04-04T21:53:34.236Z,3.57
2023-04-04T21:56:00.709Z,2.90
2023-04-04T21:58:26.956Z,3.33
2023-04-04T22:00:53.180Z,3.40
2023-04-04T22:03:19.486Z,3.30
2023-04-04T22:05:45.786Z,3.07
2023-04-04T22:08:12.183Z,3.43
2023-04-04T22:10:46.389Z,3.23
2023-04-04T22:13:16.958Z,2.90
2023-04-04T22:15:44.836Z,3.50
2023-04-04T22:18:14.791Z,3.57
2023-04-04T22:20:45.201Z,3.37
2023-04-04T22:23:12.244Z,3.40
2023-04-04T22:25:38.605Z,3.33
2023-04-04T22:28:05.460Z,3.60
2023-04-04T22:30:31.830Z,3.37
2023-04-04T22:33:03.194Z,3.03
2023-04-04T22:35:29.744Z,3.33
2023-04-04T22:38:00.744Z,2.90
2023-04-04T22:40:28.520Z,3.13
2023-04-04T22:42:55.535Z,3.67
2023-04-04T22:45:22.224Z,3.83
2023-04-04T22:47:48.642Z,2.97
2023-04-04T22:50:18.440Z,2.87
2023-04-04T22:52:44.737Z,3.00
2023-04-04T22:55:11.511Z,2.70
2023-04-04T22:57:37.921Z,2.97
2023-04-04T23:00:08.276Z,2.40
2023-04-04T23:02:34.582Z,2.40
2023-04-04T23:05:00.829Z,3.07
2023-04-04T23:07:27.063Z,2.57
2023-04-04T23:09:53.284Z,2.77
2023-04-04T23:12:19.604Z,2.90
2023-04-04T23:14:47.197Z,2.67
2023-04-04T23:17:13.542Z,2.80
2023-04-04T23:19:39.783Z,3.40
2023-04-04T23:22:06.565Z,2.57
2023-04-04T23:24:32.891Z,3.00
2023-04-04T23:26:59.198Z,2.70
2023-04-04T23:29:25.603Z,2.80
2023-04-04T23:31:51.846Z,2.70
2023-04-04T23:34:18.096Z,2.77
2023-04-04T23:36:44.354Z,2.93
2023-04-04T23:39:10.705Z,3.60
2023-04-04T23:41:36.941Z,3.17
2023-04-04T23:44:03.247Z,3.07
2023-04-04T23:46:32.542Z,2.97
2023-04-04T23:48:58.953Z,3.20
2023-04-04T23:51:26.247Z,4.00
2023-04-04T23:53:52.568Z,4.60
2023-04-04T23:56:18.826Z,4.70
2023-04-04T23:58:45.352Z,5.53
